Time;durP1;ratioP1;P1;durP2;ratioP2;P2;SDS_P1;SDS_P2;PMS_P1;PMS_P2;Temp;Humidity;BMP_temperature;BMP_pressure;BME280_temperature;BME280_humidity;BME280_pressure;Samples;Min_cycle;Max_cycle;Signal;HPM_P1;HPM_P2
2022/09/20 00:01:31;;;;;;;3.53;1.30;;;13.20;99.90;;;;;;5094851;28;20059;-80
2022/09/20 00:03:59;;;;;;;3.05;1.25;;;13.20;99.90;;;;;;5095253;28;20111;-78
2022/09/20 00:06:28;;;;;;;4.47;1.30;;;13.20;99.90;;;;;;5095014;28;20020;-79
2022/09/20 00:08:54;;;;;;;3.50;1.60;;;13.10;99.90;;;;;;5094026;28;20078;-79
2022/09/20 00:11:22;;;;;;;2.42;1.20;;;13.00;99.90;;;;;;5094501;28;20058;-79
2022/09/20 00:13:51;;;;;;;4.57;1.35;;;13.00;99.90;;;;;;5094984;28;20028;-80
2022/09/20 00:16:28;;;;;;;5.57;1.25;;;13.00;99.90;;;;;;5094789;28;20074;-79
2022/09/20 00:18:56;;;;;;;4.97;1.45;;;13.20;99.90;;;;;;5094733;28;20096;-79
2022/09/20 00:21:24;;;;;;;3.28;1.13;;;13.00;99.90;;;;;;5094602;28;20055;-79
2022/09/20 00:23:51;;;;;;;3.92;1.38;;;12.60;99.90;;;;;;5094567;28;20104;-79
2022/09/20 00:26:17;;;;;;;3.53;1.30;;;12.40;99.90;;;;;;5094299;28;20500;-79
2022/09/20 00:28:45;;;;;;;4.65;1.50;;;12.30;99.90;;;;;;5094717;28;20082;-79
2022/09/20 00:31:11;;;;;;;4.00;1.40;;;12.30;99.90;;;;;;5094232;28;20024;-79
2022/09/20 00:36:21;;;;;;;6.43;1.58;;;12.30;99.90;;;;;;5094883;28;20046;-79
2022/09/20 00:38:47;;;;;;;2.85;1.30;;;12.00;99.90;;;;;;5094057;28;20476;-79
2022/09/20 00:41:13;;;;;;;3.35;1.20;;;11.80;99.90;;;;;;5093968;28;20020;-79
2022/09/20 00:43:43;;;;;;;4.38;1.42;;;11.90;99.90;;;;;;5093915;28;20032;-79
2022/09/20 00:46:27;;;;;;;3.35;1.58;;;11.90;99.90;;;;;;5094260;28;20073;-79
2022/09/20 00:48:58;;;;;;;3.72;1.55;;;12.00;99.90;;;;;;5093983;28;20047;-79
2022/09/20 00:51:30;;;;;;;5.88;1.60;;;12.00;99.90;;;;;;5094324;28;20165;-79
2022/09/20 00:53:58;;;;;;;2.13;1.40;;;12.00;99.90;;;;;;5093891;28;20050;-79
2022/09/20 00:56:30;;;;;;;4.28;1.20;;;11.90;99.90;;;;;;5093904;28;20153;-79
2022/09/20 00:59:16;;;;;;;6.97;1.50;;;11.90;99.90;;;;;;5093789;28;20395;-79
2022/09/20 01:01:45;;;;;;;3.42;1.40;;;11.70;99.90;;;;;;5093811;28;20021;-79
2022/09/20 01:04:13;;;;;;;3.05;1.40;;;11.90;99.90;;;;;;5093840;28;20032;-79
2022/09/20 01:06:41;;;;;;;4.35;1.60;;;11.70;99.90;;;;;;5093962;28;20108;-79
2022/09/20 01:09:07;;;;;;;5.70;1.42;;;11.80;99.90;;;;;;5093240;28;20036;-79
2022/09/20 01:11:35;;;;;;;4.82;1.40;;;11.80;99.90;;;;;;5075622;28;20028;-79
2022/09/20 01:14:00;;;;;;;5.57;1.40;;;11.60;99.90;;;;;;5093649;28;20028;-79
2022/09/20 01:16:29;;;;;;;4.68;1.85;;;11.60;99.90;;;;;;5093806;28;20028;-79
2022/09/20 01:18:58;;;;;;;3.15;1.25;;;11.50;99.90;;;;;;5093733;28;20016;-79
2022/09/20 01:21:25;;;;;;;3.05;1.33;;;11.40;99.90;;;;;;5092094;28;20028;-79
2022/09/20 01:23:59;;;;;;;3.97;1.63;;;11.50;99.90;;;;;;5092856;28;20032;-79
2022/09/20 01:26:55;;;;;;;2.30;1.10;;;11.30;99.90;;;;;;5092868;28;20055;-79
2022/09/20 01:29:36;;;;;;;3.05;1.15;;;11.40;99.90;;;;;;5093166;28;20028;-79
2022/09/20 01:32:07;;;;;;;2.78;1.40;;;11.60;99.90;;;;;;5073146;28;20040;-79
2022/09/20 01:34:35;;;;;;;3.65;1.60;;;11.40;99.90;;;;;;5072663;28;20043;-79
2022/09/20 01:37:09;;;;;;;4.75;1.40;;;11.50;99.90;;;;;;5072878;28;20039;-79
2022/09/20 01:40:04;;;;;;;3.40;1.33;;;11.40;99.90;;;;;;5072852;28;20025;-79
2022/09/20 01:42:37;;;;;;;3.60;1.27;;;11.30;99.90;;;;;;5072505;28;20105;-79
2022/09/20 01:45:21;;;;;;;3.90;1.30;;;11.20;99.90;;;;;;5072397;28;20021;-79
2022/09/20 01:48:20;;;;;;;4.88;1.45;;;11.30;99.90;;;;;;5072939;28;20035;-79
2022/09/20 01:51:05;;;;;;;3.75;1.40;;;11.10;99.90;;;;;;5073179;28;20016;-79
2022/09/20 01:53:30;;;;;;;3.42;1.35;;;11.20;99.90;;;;;;5072582;28;20074;-79
2022/09/20 01:56:02;;;;;;;4.13;1.33;;;11.10;99.90;;;;;;5072576;28;20493;-79
2022/09/20 01:59:12;;;;;;;4.32;1.55;;;11.20;99.90;;;;;;5072439;28;20025;-79
2022/09/20 02:01:53;;;;;;;2.67;1.30;;;11.10;99.90;;;;;;4971408;28;20043;-78
2022/09/20 02:04:37;;;;;;;3.35;1.25;;;11.10;99.90;;;;;;4971663;28;20121;-79
2022/09/20 02:07:27;;;;;;;2.85;1.30;;;11.00;99.90;;;;;;4971177;28;20057;-79
2022/09/20 02:10:04;;;;;;;6.68;1.40;;;10.90;99.90;;;;;;4981530;28;20100;-79
2022/09/20 02:12:30;;;;;;;6.03;1.48;;;10.90;99.90;;;;;;4990470;28;20622;-79
2022/09/20 02:15:07;;;;;;;4.25;1.40;;;10.80;99.90;;;;;;4990676;28;20113;-79
2022/09/20 02:17:54;;;;;;;5.13;1.45;;;11.10;99.90;;;;;;4990790;28;20038;-79
2022/09/20 02:20:36;;;;;;;6.72;1.75;;;10.70;99.90;;;;;;4990448;28;20037;-79
2022/09/20 02:23:33;;;;;;;3.55;1.52;;;10.70;99.90;;;;;;4990642;28;20153;-79
2022/09/20 02:26:20;;;;;;;4.15;1.73;;;10.70;99.90;;;;;;4990737;28;20062;-79
2022/09/20 02:28:59;;;;;;;4.25;1.90;;;10.50;99.90;;;;;;4990540;28;20030;-79
2022/09/20 02:31:38;;;;;;;6.95;1.50;;;10.20;99.90;;;;;;4990425;28;20045;-79
2022/09/20 02:34:39;;;;;;;5.10;1.55;;;10.30;99.90;;;;;;4990657;28;20063;-78
2022/09/20 02:37:29;;;;;;;3.45;1.40;;;10.40;99.90;;;;;;5026000;28;20036;-79
2022/09/20 02:40:46;;;;;;;6.15;1.60;;;10.30;99.90;;;;;;5072030;28;20033;-79
2022/09/20 02:43:46;;;;;;;3.00;1.58;;;10.30;99.90;;;;;;5049399;28;20053;-79
2022/09/20 02:47:13;;;;;;;4.78;1.55;;;10.20;99.90;;;;;;5049676;28;20061;-79
2022/09/20 02:50:14;;;;;;;4.20;1.45;;;10.30;99.90;;;;;;4928026;29;20044;-78
2022/09/20 02:53:09;;;;;;;3.80;1.42;;;10.20;99.90;;;;;;4932536;29;20043;-79
2022/09/20 02:55:43;;;;;;;3.72;1.42;;;10.30;99.90;;;;;;4932545;29;20115;-79
2022/09/20 02:58:27;;;;;;;5.28;1.50;;;10.30;99.90;;;;;;4932631;29;20054;-79
2022/09/20 03:01:24;;;;;;;6.28;1.90;;;10.30;99.90;;;;;;4932444;29;20484;-79
2022/09/20 03:04:15;;;;;;;4.25;1.70;;;10.20;99.90;;;;;;4912716;29;20084;-79
2022/09/20 03:06:49;;;;;;;4.53;1.55;;;10.10;99.90;;;;;;4913308;29;20402;-79
2022/09/20 03:09:24;;;;;;;3.72;1.88;;;10.10;99.90;;;;;;4918190;29;20484;-79
2022/09/20 03:11:56;;;;;;;4.20;1.88;;;10.20;99.90;;;;;;4932881;29;20122;-79
2022/09/20 03:14:35;;;;;;;5.40;1.65;;;10.30;99.90;;;;;;4932293;29;20040;-78
2022/09/20 03:17:18;;;;;;;5.68;1.80;;;10.10;99.90;;;;;;4931954;29;20024;-79
2022/09/20 03:20:11;;;;;;;2.85;1.60;;;10.10;99.90;;;;;;4951132;29;20043;-78
2022/09/20 03:22:42;;;;;;;4.75;1.50;;;10.00;99.90;;;;;;4951405;29;20494;-79
2022/09/20 03:25:34;;;;;;;4.07;1.45;;;9.80;99.90;;;;;;5002585;28;20037;-79
2022/09/20 03:28:28;;;;;;;3.08;1.52;;;9.80;99.90;;;;;;5029085;28;20045;-79
2022/09/20 03:31:20;;;;;;;4.57;1.60;;;10.10;99.90;;;;;;5029409;28;20164;-79
2022/09/20 03:34:02;;;;;;;3.63;1.50;;;10.10;99.90;;;;;;5029249;28;20069;-79
2022/09/20 03:36:58;;;;;;;5.55;1.60;;;9.90;99.90;;;;;;5028988;28;20125;-79
2022/09/20 03:39:23;;;;;;;5.95;1.90;;;9.90;99.90;;;;;;5059475;28;20306;-79
2022/09/20 03:42:01;;;;;;;4.40;1.63;;;9.90;99.90;;;;;;5091377;28;20031;-78
2022/09/20 03:44:57;;;;;;;3.10;1.52;;;9.80;99.90;;;;;;5093083;28;20103;-79
2022/09/20 03:47:33;;;;;;;3.97;1.63;;;9.90;99.90;;;;;;5094934;28;20103;-79
2022/09/20 03:50:41;;;;;;;6.00;1.92;;;9.80;99.90;;;;;;5095569;28;20118;-79
2022/09/20 03:53:45;;;;;;;4.43;1.70;;;9.70;99.90;;;;;;5095204;28;20093;-78
2022/09/20 03:56:45;;;;;;;4.72;1.77;;;9.80;99.90;;;;;;5095266;28;20028;-79
2022/09/20 03:59:35;;;;;;;3.92;1.70;;;9.80;99.90;;;;;;5095383;28;20024;-79
2022/09/20 04:02:03;;;;;;;3.58;1.65;;;9.80;99.90;;;;;;5094663;28;20070;-79
2022/09/20 04:04:48;;;;;;;5.25;1.40;;;10.00;99.90;;;;;;5094734;28;20028;-79
2022/09/20 04:07:23;;;;;;;5.32;1.85;;;9.70;99.90;;;;;;5094667;28;20476;-79
2022/09/20 04:10:03;;;;;;;3.78;1.80;;;9.80;99.90;;;;;;5094972;28;20401;-79
2022/09/20 04:12:59;;;;;;;5.97;1.95;;;9.60;99.90;;;;;;5095019;28;20541;-79
2022/09/20 04:15:40;;;;;;;3.53;1.77;;;9.60;99.90;;;;;;5094854;28;20044;-79
2022/09/20 04:18:36;;;;;;;5.47;2.15;;;9.60;99.90;;;;;;5094364;28;20036;-79
2022/09/20 04:21:23;;;;;;;3.50;1.80;;;9.60;99.90;;;;;;5094864;28;20020;-79
2022/09/20 04:23:52;;;;;;;3.25;1.58;;;9.60;99.90;;;;;;5076475;28;20388;-79
2022/09/20 04:26:26;;;;;;;4.40;1.80;;;9.50;99.90;;;;;;5094485;28;20024;-78
2022/09/20 04:29:07;;;;;;;7.55;2.10;;;9.50;99.90;;;;;;5094399;28;20032;-79
2022/09/20 04:31:42;;;;;;;4.97;1.95;;;9.50;99.90;;;;;;5094015;28;20020;-79
2022/09/20 04:36:27;;;;;;;5.53;1.90;;;9.50;99.90;;;;;;5094300;28;20419;-79
2022/09/20 04:37:32;;;;;;;6.97;1.90;;;9.60;99.90;;;;;;5093947;28;20039;-79
2022/09/20 04:40:35;;;;;;;5.70;1.70;;;9.40;99.90;;;;;;5094593;28;20028;-78
2022/09/20 04:43:31;;;;;;;4.03;1.80;;;9.40;99.90;;;;;;5083015;28;20048;-79
2022/09/20 04:46:34;;;;;;;4.25;1.60;;;9.40;99.90;;;;;;5093820;28;20055;-79
2022/09/20 04:49:37;;;;;;;5.28;1.67;;;9.20;99.90;;;;;;5093975;28;20020;-79
2022/09/20 04:52:38;;;;;;;3.90;2.15;;;9.20;99.90;;;;;;5093978;28;20096;-79
2022/09/20 04:55:22;;;;;;;4.88;1.70;;;9.20;99.90;;;;;;5093781;28;20024;-79
2022/09/20 04:58:35;;;;;;;4.72;1.83;;;9.20;99.90;;;;;;5093964;28;20058;-78
2022/09/20 05:01:18;;;;;;;5.43;1.85;;;9.20;99.90;;;;;;5086005;28;20039;-79
2022/09/20 05:04:14;;;;;;;9.38;1.92;;;9.10;99.90;;;;;;5093651;28;20036;-79
2022/09/20 05:06:51;;;;;;;3.40;1.55;;;9.20;99.90;;;;;;5093715;28;20112;-79
2022/09/20 05:09:37;;;;;;;4.45;1.63;;;9.10;99.90;;;;;;5093428;28;20027;-79
2022/09/20 05:12:18;;;;;;;4.82;1.98;;;9.10;99.90;;;;;;5094181;28;20073;-79
2022/09/20 05:14:52;;;;;;;5.55;1.90;;;9.10;99.90;;;;;;5093177;28;20365;-79
2022/09/20 05:17:43;;;;;;;5.28;1.90;;;9.10;99.90;;;;;;5093308;28;20028;-79
2022/09/20 05:20:28;;;;;;;5.63;1.70;;;9.10;99.90;;;;;;5093475;28;20040;-79
2022/09/20 05:23:23;;;;;;;4.82;1.90;;;9.00;99.90;;;;;;5093461;28;20586;-79
2022/09/20 05:26:09;;;;;;;7.03;1.98;;;9.10;99.90;;;;;;5093042;28;20048;-79
2022/09/20 05:28:43;;;;;;;7.00;2.20;;;9.10;99.90;;;;;;5093097;28;20024;-79
2022/09/20 05:31:21;;;;;;;6.45;2.47;;;9.00;99.90;;;;;;5093170;28;20048;-79
2022/09/20 05:34:20;;;;;;;4.93;2.00;;;9.30;99.90;;;;;;5092819;28;20120;-79
2022/09/20 05:37:17;;;;;;;3.95;2.00;;;9.00;99.90;;;;;;5093171;28;20028;-79
2022/09/20 05:39:57;;;;;;;9.13;2.10;;;9.00;99.90;;;;;;5093049;28;20085;-79
2022/09/20 05:42:32;;;;;;;6.00;2.38;;;9.10;99.90;;;;;;5092770;28;20036;-79
2022/09/20 05:45:25;;;;;;;4.53;2.13;;;9.20;99.90;;;;;;5092949;28;20054;-79
2022/09/20 05:48:01;;;;;;;9.60;2.33;;;9.30;99.90;;;;;;5092686;28;20093;-79
2022/09/20 05:50:33;;;;;;;5.72;2.10;;;9.50;99.90;;;;;;5092918;28;20099;-78
2022/09/20 05:53:13;;;;;;;3.42;1.75;;;9.50;99.90;;;;;;5092644;28;20119;-79
2022/09/20 05:55:50;;;;;;;4.93;2.03;;;9.40;99.90;;;;;;5092718;28;20111;-79
2022/09/20 05:58:25;;;;;;;6.97;1.95;;;9.50;99.90;;;;;;5092306;28;20141;-79
2022/09/20 06:01:03;;;;;;;7.85;2.25;;;9.20;99.90;;;;;;5092673;28;20020;-79
2022/09/20 06:03:31;;;;;;;6.63;2.10;;;9.50;99.90;;;;;;5091579;28;21498;-81
2022/09/20 06:06:06;;;;;;;10.70;2.50;;;9.50;99.90;;;;;;5092231;28;20089;-81
2022/09/20 06:08:56;;;;;;;4.45;2.10;;;9.70;99.90;;;;;;5091998;28;20028;-82
2022/09/20 06:11:42;;;;;;;4.95;2.03;;;9.80;99.90;;;;;;5082158;28;20120;-82
2022/09/20 06:14:20;;;;;;;8.23;2.60;;;9.90;99.90;;;;;;5092055;28;20039;-81
2022/09/20 06:17:09;;;;;;;5.72;2.00;;;10.00;99.90;;;;;;5091872;28;20020;-81
2022/09/20 06:19:46;;;;;;;5.80;2.80;;;10.20;99.90;;;;;;5092145;28;20032;-79
2022/09/20 06:22:18;;;;;;;7.72;2.20;;;10.00;99.90;;;;;;5092200;28;20020;-79
2022/09/20 06:25:07;;;;;;;5.25;2.28;;;10.00;99.90;;;;;;5092368;28;20036;-79
2022/09/20 06:27:53;;;;;;;6.50;2.15;;;10.10;99.90;;;;;;5009843;28;20553;-79
2022/09/20 06:30:25;;;;;;;4.25;2.40;;;10.00;99.90;;;;;;5010109;28;20061;-79
2022/09/20 06:32:57;;;;;;;5.55;2.20;;;10.00;99.90;;;;;;5009890;28;20065;-79
2022/09/20 06:35:27;;;;;;;5.15;2.03;;;10.20;99.90;;;;;;5010297;28;20068;-79
2022/09/20 06:41:27;;;;;;;5.88;2.33;;;10.40;99.90;;;;;;4990039;28;20415;-79
2022/09/20 06:43:57;;;;;;;7.18;2.67;;;10.40;99.90;;;;;;4990582;28;20633;-79
2022/09/20 06:46:23;;;;;;;6.55;2.20;;;10.60;99.90;;;;;;4974716;28;20038;-79
2022/09/20 06:48:49;;;;;;;7.88;2.88;;;10.90;99.90;;;;;;4990635;28;20030;-79
2022/09/20 06:51:14;;;;;;;7.80;2.95;;;10.70;99.90;;;;;;4990550;28;20026;-79
2022/09/20 06:53:41;;;;;;;5.93;2.72;;;10.80;99.90;;;;;;4990312;28;20117;-79
2022/09/20 06:56:19;;;;;;;9.40;2.45;;;10.90;99.90;;;;;;4990290;28;20379;-79
2022/09/20 06:58:45;;;;;;;8.57;2.72;;;11.00;99.90;;;;;;4990712;28;20170;-79
2022/09/20 07:01:12;;;;;;;7.95;2.50;;;11.00;99.90;;;;;;4990375;28;20046;-80
2022/09/20 07:03:38;;;;;;;5.32;2.22;;;11.00;99.90;;;;;;4990288;28;20050;-79
2022/09/20 07:06:05;;;;;;;4.40;2.42;;;11.10;99.90;;;;;;4990827;28;20472;-79
2022/09/20 07:08:30;;;;;;;9.15;2.05;;;11.00;99.90;;;;;;4990365;28;20035;-79
2022/09/20 07:10:56;;;;;;;7.30;1.80;;;11.10;99.90;;;;;;4989955;28;20511;-79
2022/09/20 07:13:22;;;;;;;6.50;2.22;;;11.00;99.90;;;;;;4990394;28;20038;-79
2022/09/20 07:15:49;;;;;;;7.65;2.47;;;10.90;99.90;;;;;;4990222;28;20578;-79
2022/09/20 07:18:15;;;;;;;4.55;2.08;;;10.90;99.90;;;;;;5064271;28;20043;-79
2022/09/20 07:20:40;;;;;;;8.63;2.90;;;11.00;99.90;;;;;;5095323;28;20020;-79
2022/09/20 07:23:07;;;;;;;9.32;2.72;;;11.00;99.90;;;;;;5095920;28;20031;-79
2022/09/20 07:25:33;;;;;;;6.68;2.50;;;11.10;99.90;;;;;;5095795;28;20055;-79
2022/09/20 07:27:58;;;;;;;5.75;2.03;;;11.10;99.90;;;;;;5095703;28;20055;-79
2022/09/20 07:30:24;;;;;;;7.53;2.38;;;11.20;99.90;;;;;;5077691;28;20028;-79
2022/09/20 07:32:50;;;;;;;6.00;2.30;;;11.20;99.90;;;;;;5095368;28;20449;-79
2022/09/20 07:35:16;;;;;;;6.53;2.40;;;11.30;99.90;;;;;;5096062;28;20178;-79
2022/09/20 07:37:41;;;;;;;4.50;2.10;;;11.30;99.90;;;;;;5095423;28;20024;-79
2022/09/20 07:40:09;;;;;;;7.13;2.03;;;11.20;99.90;;;;;;5095489;28;20024;-79
2022/09/20 07:42:34;;;;;;;5.75;2.13;;;11.20;99.90;;;;;;5095572;28;20036;-79
2022/09/20 07:45:02;;;;;;;6.47;2.00;;;11.30;99.90;;;;;;5095292;28;20028;-79
2022/09/20 07:47:30;;;;;;;6.07;2.10;;;11.20;99.90;;;;;;5095693;28;20034;-80
2022/09/20 07:49:57;;;;;;;6.53;2.47;;;11.30;99.90;;;;;;5095180;28;20016;-79
2022/09/20 07:52:22;;;;;;;6.20;2.33;;;11.40;99.90;;;;;;5095140;28;20032;-78
2022/09/20 07:54:48;;;;;;;7.30;2.10;;;11.50;99.90;;;;;;5094809;28;20026;-79
2022/09/20 07:57:15;;;;;;;6.97;2.53;;;11.40;99.90;;;;;;5095027;28;20073;-79
2022/09/20 07:59:41;;;;;;;5.00;2.20;;;11.50;99.90;;;;;;5095045;28;20028;-79
2022/09/20 08:02:17;;;;;;;5.07;2.20;;;11.60;99.90;;;;;;5094954;28;20107;-79
2022/09/20 08:04:43;;;;;;;5.68;2.20;;;11.70;99.90;;;;;;5095101;28;20032;-79
2022/09/20 08:07:08;;;;;;;6.93;2.00;;;11.70;99.90;;;;;;5094789;28;20495;-79
2022/09/20 08:09:34;;;;;;;6.60;2.28;;;11.90;99.90;;;;;;5094476;28;20028;-79
2022/09/20 08:12:00;;;;;;;5.60;2.30;;;11.80;99.90;;;;;;5095129;28;20024;-79
2022/09/20 08:14:26;;;;;;;5.53;2.17;;;11.80;99.90;;;;;;5094644;28;20053;-79
2022/09/20 08:16:51;;;;;;;5.85;2.53;;;12.00;99.90;;;;;;5094822;28;20495;-79
2022/09/20 08:19:22;;;;;;;3.90;2.30;;;12.10;99.90;;;;;;5094631;28;20077;-79
2022/09/20 08:21:49;;;;;;;6.97;2.70;;;12.20;99.90;;;;;;5095227;28;20040;-79
2022/09/20 08:24:16;;;;;;;6.70;2.90;;;12.30;99.90;;;;;;5094546;28;20034;-80
2022/09/20 08:26:42;;;;;;;7.95;2.40;;;12.40;99.90;;;;;;5094657;28;20031;-79
2022/09/20 08:29:08;;;;;;;5.50;2.00;;;12.40;99.90;;;;;;5094751;28;20032;-79
2022/09/20 08:31:37;;;;;;;10.55;2.55;;;12.20;99.90;;;;;;5091568;28;20069;-80
2022/09/20 08:34:05;;;;;;;5.78;2.30;;;12.20;99.90;;;;;;5094329;28;20048;-83
2022/09/20 08:36:33;;;;;;;6.70;2.30;;;12.40;99.90;;;;;;5093874;28;20035;-81
2022/09/20 08:38:59;;;;;;;3.53;2.17;;;12.60;99.90;;;;;;5094323;28;20436;-79
2022/09/20 08:41:35;;;;;;;7.20;2.03;;;12.60;99.90;;;;;;5092624;28;20117;-80
2022/09/20 08:44:30;;;;;;;6.03;1.83;;;12.40;99.90;;;;;;5093239;28;20487;-78
2022/09/20 08:47:04;;;;;;;6.05;1.52;;;12.40;99.90;;;;;;5091833;28;20032;-78
2022/09/20 08:49:31;;;;;;;8.35;2.00;;;12.70;99.90;;;;;;5094097;28;20032;-79
2022/09/20 08:51:58;;;;;;;3.58;1.88;;;12.80;99.90;;;;;;5093837;28;20032;-78
2022/09/20 08:54:25;;;;;;;4.25;2.15;;;12.80;99.90;;;;;;5093857;28;20028;-78
2022/09/20 08:56:51;;;;;;;4.32;2.10;;;13.00;99.90;;;;;;5093797;28;20484;-78
2022/09/20 08:59:19;;;;;;;4.18;2.00;;;13.40;99.90;;;;;;5093903;28;20028;-78
2022/09/20 09:01:47;;;;;;;4.05;1.50;;;14.10;99.90;;;;;;5093819;28;20032;-78
2022/09/20 09:04:17;;;;;;;7.72;2.00;;;18.50;99.90;;;;;;5094329;28;20026;-78
2022/09/20 09:06:44;;;;;;;9.30;2.25;;;23.90;99.90;;;;;;5093436;28;20163;-79
2022/09/20 09:09:24;;;;;;;4.78;1.90;;;27.10;99.90;;;;;;5093750;28;20021;-78
2022/09/20 09:11:52;;;;;;;5.25;2.53;;;28.20;99.90;;;;;;5093957;28;20103;-79
2022/09/20 09:17:15;;;;;;;3.88;1.83;;;30.90;99.90;;;;;;5094214;28;20055;-79
2022/09/20 09:19:58;;;;;;;6.25;2.05;;;32.30;99.90;;;;;;5093465;28;20030;-79
2022/09/20 09:22:46;;;;;;;7.13;1.90;;;31.00;99.90;;;;;;5093207;28;20024;-79
2022/09/20 09:25:22;;;;;;;5.28;1.83;;;31.30;99.90;;;;;;5093217;28;20032;-80
2022/09/20 09:27:50;;;;;;;4.25;1.77;;;32.70;99.90;;;;;;5093742;28;20365;-79
2022/09/20 09:30:41;;;;;;;3.85;1.90;;;33.20;99.90;;;;;;5093613;28;20029;-79
2022/09/20 09:33:25;;;;;;;3.67;1.90;;;32.80;99.90;;;;;;5092341;28;20039;-79
2022/09/20 09:35:59;;;;;;;4.35;1.90;;;32.80;99.90;;;;;;5093310;28;20028;-80
2022/09/20 09:38:30;;;;;;;4.82;2.00;;;33.00;99.90;;;;;;5093185;28;20028;-80
2022/09/20 09:41:01;;;;;;;3.67;1.60;;;33.50;99.90;;;;;;5092925;28;20484;-80
2022/09/20 09:43:32;;;;;;;2.95;1.55;;;33.60;99.90;;;;;;5092438;28;20043;-80
2022/09/20 09:46:22;;;;;;;5.75;2.00;;;34.40;99.90;;;;;;5093449;28;20077;-79
2022/09/20 09:49:03;;;;;;;3.83;1.83;;;35.10;99.90;;;;;;5092998;28;20028;-80
2022/09/20 09:51:31;;;;;;;4.45;2.00;;;34.80;99.90;;;;;;5092990;28;20103;-80
2022/09/20 09:53:57;;;;;;;3.97;2.00;;;35.10;99.90;;;;;;5093026;28;20537;-79
2022/09/20 09:56:38;;;;;;;4.00;1.63;;;34.90;99.90;;;;;;5093029;28;20404;-79
2022/09/20 09:59:39;;;;;;;6.97;2.30;;;34.80;99.90;;;;;;5092840;28;20032;-79
2022/09/20 10:02:29;;;;;;;5.72;2.13;;;34.70;99.90;;;;;;5078541;28;20051;-80
2022/09/20 10:05:29;;;;;;;4.38;1.85;;;34.70;99.90;;;;;;5092781;28;20031;-80
2022/09/20 10:08:06;;;;;;;3.83;1.90;;;35.40;99.90;;;;;;5092456;28;20024;-79
2022/09/20 10:11:01;;;;;;;4.03;1.70;;;35.80;99.90;;;;;;5092403;28;20039;-80
2022/09/20 10:14:04;;;;;;;4.28;1.70;;;35.30;99.90;;;;;;5071642;28;20040;-79
2022/09/20 10:17:05;;;;;;;1.80;1.50;;;35.70;99.90;;;;;;5092585;28;20016;-79
2022/09/20 10:19:34;;;;;;;5.43;1.52;;;35.70;99.90;;;;;;5092277;28;20024;-80
2022/09/20 10:22:20;;;;;;;4.88;1.70;;;36.60;99.90;;;;;;5092839;28;20028;-79
2022/09/20 10:25:11;;;;;;;4.40;1.90;;;35.20;99.90;;;;;;5092757;28;20096;-80
2022/09/20 10:27:37;;;;;;;3.55;1.75;;;35.80;99.90;;;;;;5092354;28;20024;-80
2022/09/20 10:30:08;;;;;;;3.72;1.55;;;36.30;99.90;;;;;;5092369;28;20123;-79
2022/09/20 10:32:44;;;;;;;3.10;1.50;;;35.10;99.90;;;;;;5092814;28;20067;-80
2022/09/20 10:35:10;;;;;;;3.22;1.40;;;35.50;99.90;;;;;;5092121;28;20024;-80
2022/09/20 10:37:52;;;;;;;4.60;1.70;;;37.60;99.90;;;;;;5092414;28;20020;-80
2022/09/20 10:40:23;;;;;;;3.63;1.60;;;38.10;99.90;;;;;;5092255;28;20024;-80
2022/09/20 10:43:14;;;;;;;3.90;1.75;;;39.40;99.90;;;;;;5092155;28;20101;-80
2022/09/20 10:46:12;;;;;;;2.53;1.48;;;38.80;99.90;;;;;;5092580;28;20028;-80
2022/09/20 10:48:56;;;;;;;3.55;1.70;;;38.90;99.90;;;;;;5091922;28;20500;-80
2022/09/20 10:51:47;;;;;;;2.50;1.67;;;38.80;99.90;;;;;;5092577;28;20028;-80
2022/09/20 10:54:40;;;;;;;2.67;1.42;;;39.90;99.90;;;;;;5095112;28;20024;-80
2022/09/20 10:57:44;;;;;;;3.90;1.55;;;40.40;99.90;;;;;;5096585;28;20411;-80
2022/09/20 11:00:20;;;;;;;3.72;1.60;;;40.00;99.90;;;;;;5096736;28;20020;-79
2022/09/20 11:03:17;;;;;;;2.92;1.40;;;38.20;99.90;;;;;;5095357;28;20119;-80
2022/09/20 11:06:18;;;;;;;3.28;1.65;;;38.50;99.90;;;;;;5091203;28;20032;-79
2022/09/20 11:08:49;;;;;;;6.47;1.45;;;39.90;99.90;;;;;;5096167;28;20479;-80
2022/09/20 11:11:24;;;;;;;3.38;1.73;;;39.50;99.90;;;;;;5096090;28;20024;-79
2022/09/20 11:14:17;;;;;;;4.50;1.50;;;40.20;99.90;;;;;;5095859;28;20048;-80
2022/09/20 11:16:59;;;;;;;4.07;1.70;;;39.50;99.90;;;;;;5095568;28;20036;-80
2022/09/20 11:19:44;;;;;;;3.35;1.52;;;39.60;99.90;;;;;;5095755;28;20024;-79
2022/09/20 11:22:41;;;;;;;2.53;1.33;;;40.30;99.90;;;;;;5095651;28;20024;-80
2022/09/20 11:25:20;;;;;;;4.50;1.77;;;39.10;99.90;;;;;;5094684;28;20063;-79
2022/09/20 11:28:22;;;;;;;3.05;1.40;;;37.80;99.90;;;;;;5075091;28;20032;-79
2022/09/20 11:31:11;;;;;;;2.85;1.40;;;38.60;99.90;;;;;;5086143;28;20091;-79
2022/09/20 11:33:59;;;;;;;4.57;1.63;;;38.50;99.90;;;;;;5082982;28;20044;-79
2022/09/20 11:36:33;;;;;;;3.22;1.50;;;38.60;99.90;;;;;;5095397;28;20032;-80
2022/09/20 11:39:09;;;;;;;4.30;1.48;;;39.20;99.90;;;;;;5094897;28;20396;-80
2022/09/20 11:41:35;;;;;;;2.58;1.40;;;40.10;99.90;;;;;;5095470;28;20028;-79
2022/09/20 11:44:10;;;;;;;3.08;1.45;;;40.10;99.90;;;;;;5095408;28;20035;-80
2022/09/20 11:46:47;;;;;;;2.95;1.50;;;39.00;99.90;;;;;;5094911;28;20527;-80
2022/09/20 11:49:18;;;;;;;6.53;3.30;;;38.80;99.90;;;;;;5095312;28;20020;-79
2022/09/20 11:52:12;;;;;;;2.47;1.40;;;38.70;99.90;;;;;;5095116;28;20621;-80
2022/09/20 11:55:02;;;;;;;5.55;2.67;;;37.00;99.90;;;;;;5095271;28;20032;-80
2022/09/20 11:57:28;;;;;;;4.13;2.30;;;37.80;99.90;;;;;;5095115;28;20039;-80
2022/09/20 11:59:57;;;;;;;3.42;1.75;;;39.10;99.90;;;;;;5095222;28;20116;-80
2022/09/20 12:02:49;;;;;;;2.72;1.40;;;39.40;99.90;;;;;;5095041;28;20075;-79
2022/09/20 12:05:32;;;;;;;3.42;1.52;;;39.40;99.90;;;;;;5094235;28;20024;-80
2022/09/20 12:08:00;;;;;;;4.40;1.30;;;39.20;99.90;;;;;;5094842;28;20399;-79
2022/09/20 12:10:29;;;;;;;4.20;1.75;;;39.10;99.90;;;;;;5095072;28;20043;-79
2022/09/20 12:13:07;;;;;;;3.63;1.70;;;39.80;99.90;;;;;;5095080;28;20024;-80
2022/09/20 12:15:38;;;;;;;3.05;1.60;;;40.00;99.90;;;;;;5094962;28;20035;-79
2022/09/20 12:18:14;;;;;;;2.28;1.48;;;39.20;99.90;;;;;;5094864;28;20047;-80
2022/09/20 12:20:43;;;;;;;2.15;1.30;;;38.90;99.90;;;;;;5094700;28;20476;-79
2022/09/20 12:23:43;;;;;;;2.55;1.42;;;39.30;99.90;;;;;;5094707;28;20549;-80
2022/09/20 12:26:20;;;;;;;4.80;3.35;;;39.70;99.90;;;;;;5094723;28;20024;-80
2022/09/20 12:28:53;;;;;;;5.95;4.97;;;39.20;99.90;;;;;;5094919;28;20422;-80
2022/09/20 12:31:21;;;;;;;5.22;1.77;;;38.80;99.90;;;;;;5094148;28;20484;-80
2022/09/20 12:33:59;;;;;;;2.10;1.20;;;38.50;99.90;;;;;;5094130;28;20054;-80
2022/09/20 12:36:27;;;;;;;3.75;1.45;;;38.50;99.90;;;;;;5094445;28;20016;-80
2022/09/20 12:39:11;;;;;;;2.65;1.63;;;38.90;99.90;;;;;;5094702;28;20039;-80
2022/09/20 12:41:53;;;;;;;3.53;1.38;;;38.80;99.90;;;;;;5094788;28;20032;-80
2022/09/20 12:44:23;;;;;;;2.85;1.10;;;38.70;99.90;;;;;;5093882;28;20046;-80
2022/09/20 12:47:07;;;;;;;2.85;1.30;;;38.50;99.90;;;;;;5094248;28;20020;-80
2022/09/20 12:52:54;;;;;;;2.75;1.30;;;38.30;99.90;;;;;;5094073;28;20383;-80
2022/09/20 12:55:45;;;;;;;3.42;1.23;;;38.80;99.90;;;;;;5094071;28;20023;-80
2022/09/20 12:58:13;;;;;;;2.97;1.42;;;38.00;99.90;;;;;;5093696;28;20028;-80
2022/09/20 13:00:54;;;;;;;2.53;1.50;;;38.10;99.90;;;;;;5094207;28;20099;-80
2022/09/20 13:03:30;;;;;;;4.90;1.35;;;37.20;99.90;;;;;;5093644;28;20032;-80
2022/09/20 13:06:05;;;;;;;3.38;1.58;;;38.00;99.90;;;;;;5093767;28;20020;-80
2022/09/20 13:08:51;;;;;;;2.13;1.30;;;36.60;99.90;;;;;;5093660;28;20032;-79
2022/09/20 13:11:19;;;;;;;2.70;1.10;;;35.10;99.90;;;;;;5076048;28;20487;-80
2022/09/20 13:13:56;;;;;;;3.42;1.30;;;34.30;99.90;;;;;;5093918;28;20028;-80
2022/09/20 13:16:30;;;;;;;2.47;1.17;;;34.80;99.90;;;;;;5093646;28;20022;-80
2022/09/20 13:19:06;;;;;;;3.03;1.13;;;35.00;99.90;;;;;;5093505;28;20067;-79
2022/09/20 13:21:36;;;;;;;2.90;0.93;;;34.10;99.90;;;;;;5093471;28;20020;-80
2022/09/20 13:24:04;;;;;;;2.10;1.23;;;34.60;99.90;;;;;;5093576;28;20035;-79
2022/09/20 13:26:38;;;;;;;3.30;1.33;;;34.70;99.90;;;;;;5093399;28;20077;-80
2022/09/20 13:29:09;;;;;;;2.22;1.15;;;35.50;99.90;;;;;;5092978;28;20024;-79
2022/09/20 13:31:35;;;;;;;2.75;1.33;;;34.90;99.90;;;;;;5093163;28;20491;-80
2022/09/20 13:34:21;;;;;;;4.00;1.10;;;34.10;99.90;;;;;;5093388;28;20052;-80
2022/09/20 13:36:49;;;;;;;2.80;1.20;;;34.10;99.90;;;;;;5093708;28;20020;-79
2022/09/20 13:39:54;;;;;;;3.50;1.30;;;33.90;99.90;;;;;;5093112;28;20069;-80
2022/09/20 13:42:20;;;;;;;3.38;1.13;;;33.40;99.90;;;;;;5010448;28;20494;-80
2022/09/20 13:44:47;;;;;;;3.17;1.45;;;33.60;99.90;;;;;;5010937;28;20096;-80
2022/09/20 13:47:40;;;;;;;4.13;1.85;;;33.50;99.90;;;;;;5010813;28;20080;-80
2022/09/20 13:50:24;;;;;;;2.45;1.48;;;33.70;99.90;;;;;;5010962;28;20479;-80
2022/09/20 13:52:53;;;;;;;2.28;1.17;;;33.00;99.90;;;;;;5010806;28;20406;-80
2022/09/20 13:55:29;;;;;;;4.13;1.50;;;33.70;99.90;;;;;;5011363;28;20052;-80
2022/09/20 13:58:01;;;;;;;2.95;1.30;;;33.50;99.90;;;;;;5010404;28;20508;-80